Flight Track Log - Related Links

Times and Time Zones

All times are in EST time to prevent confusion due to time zone crossing. See the N563WD flight status page for this flight to view local times or setup timezone preferences in your user account.

Time Position Orientation Groundspeed Altitude Reporting Facility
EST Latitude Longitude Course Direction KTS MPH feet Rate Location/Type
Sun 12:00:10 PM 27.2331 -98.0594 40° Northeast 249 287 3,700  Level Houston Center
Sun 12:01:12 PM 27.2900 -98.0058 40° Northeast 260 299 7,100 3,097 Climbing Houston Center
Sun 12:02:14 PM 27.3489 -97.9506 40° Northeast 265 305 10,100 2,274 Climbing Houston Center
Sun 12:03:16 PM 27.4169 -97.8892 39° Northeast 304 350 11,800 1,742 Climbing Houston Center
Sun 12:04:18 PM 27.4844 -97.8281 39° Northeast 330 380 13,700 2,226 Climbing Houston Center
Sun 12:05:20 PM 27.5767 -97.7439 39° Northeast 359 413 16,400 2,226 Climbing Houston Center
Sun 12:06:22 PM 27.6575 -97.6700 39° Northeast 365 420 18,300 1,790 Climbing Houston Center
Sun 12:07:24 PM 27.7403 -97.5944 39° Northeast 370 426 20,100 1,776 Climbing Houston Center
Sun 12:08:27 PM 27.8325 -97.5100 39° Northeast 382 440 22,000 1,392 Climbing Houston Center
Sun 12:09:29 PM 27.9194 -97.4308 39° Northeast 391 450 23,000 484 Climbing Houston Center
Sun 12:10:31 PM 28.0167 -97.3475 37° Northeast 426 490 23,000  Level Houston Center
Sun 12:11:33 PM 28.1086 -97.2533 42° Northeast 438 504 23,000  Level Houston Center
Sun 12:12:35 PM 28.2017 -97.1606 41° Northeast 438 504 23,000  Level Houston Center
Sun 12:13:37 PM 28.2858 -97.0769 41° Northeast 438 504 23,000  Level Houston Center
Sun 12:14:39 PM 28.3969 -96.9636 42° Northeast 447 514 23,000  Level Houston Center
Sun 12:15:42 PM 28.4889 -96.8719 41° Northeast 443 510 23,000  Level Houston Center
Sun 12:16:44 PM 28.5819 -96.7783 41° Northeast 446 513 23,000  Level Houston Center
Sun 12:17:46 PM 28.6725 -96.6842 42° Northeast 444 511 23,000  Level Houston Center
Sun 12:18:48 PM 28.7647 -96.5908 42° Northeast 445 512 23,000 -48 Level Houston Center
Sun 12:19:50 PM 28.8750 -96.4794 41° Northeast 445 512 22,900 -1,113 Descending Houston Center
Sun 12:20:52 PM 28.9636 -96.3881 42° Northeast 437 503 20,700 -2,308 Descending Houston Center
Sun 12:21:47 PM 29.0333 -96.3122 44° Northeast 434 499 18,400 -2,190 Descending Houston Center
Sun 12:21:55 PM 29.0531 -96.2953 37° Northeast 437 503 18,400 -1,688 Level Houston Center
Sun 12:22:19 PM 29.0875 -96.2583 43° Northeast 431 496 17,500 -2,129 Descending Houston Center
Sun 12:22:57 PM 29.1389 -96.2078 41° Northeast 421 484 16,200 -2,262 Descending Houston Center
Sun 12:23:20 PM 29.1783 -96.1669 42° Northeast 409 471 15,200 -2,032 Descending Houston Center
Sun 12:23:59 PM 29.2211 -96.1225 42° Northeast 406 467 14,100 -2,164 Descending Houston Center
Sun 12:24:21 PM 29.2650 -96.0761 43° Northeast 391 450 13,000 -2,226 Descending Houston Center
Sun 12:25:01 PM 29.3169 -96.0236 41° Northeast 392 451 11,800 -1,672 Descending Houston Center
Sun 12:25:22 PM 29.3439 -95.9953 43° Northeast 382 440 11,300 -1,452 Descending Houston Center
Sun 12:26:03 PM 29.3928 -95.9439 42° Northeast 376 433 10,300 -816 Descending Houston Center
Sun 12:27:05 PM 29.4689 -95.8625 43° Northeast 375 432 9,900 -136 Descending Houston Center
Sun 12:27:31 PM 29.5044 -95.8139 50° Northeast 386 444 10,100 -290 Climbing Houston Center
Sun 12:28:07 PM 29.5219 -95.7622 69° East 380 437 9,600 -871 Descending Houston Center
Sun 12:28:33 PM 29.5386 -95.7042 72° East 343 395 9,200 -857 Descending Houston Center
Sun 12:29:10 PM 29.5522 -95.6594 71° East 348 400 8,700 -968 Descending Houston Center
Sun 12:29:35 PM 29.5678 -95.6072 71° East 321 369 8,200 -1,258 Descending Houston Center
Sun 12:30:12 PM 29.5853 -95.5447 72° East 322 371 7,400 -1,200 Descending Houston Center
Sun 12:30:35 PM 29.5950 -95.5128 71° East 304 350 7,000 -1,355 Descending Houston Center
Sun 12:31:14 PM 29.6122 -95.4558 71° East 304 350 6,000 -871 Descending Houston Center
Sun 12:31:37 PM 29.6222 -95.4206 72° East 287 330 6,100 -97 Climbing Houston Center
Sun 12:32:16 PM 29.6328 -95.3753 75° East 274 315 5,900  Descending Houston Center
Sun 12:32:32 PM 29.6325 -95.3494 91° East 230 265 6,100  Climbing Houston Center
Sun 12:33:18 PM 29.6294 -95.2994 94° East 239 275 5,900 -98 Descending Houston Center
Sun 12:33:33 PM 29.6236 -95.2761 106° East 234 269 6,000 -1,161 Climbing Houston Center
Sun 12:34:20 PM 29.6186 -95.2269 97° East 236 272 4,700 -1,742 Descending Houston Center
Sun 12:34:35 PM 29.6167 -95.2000 95° East 240 276 4,200 -774 Descending Houston Center
Sun 12:35:22 PM 29.6111 -95.1528 98° East 236 272 3,900 -98 Descending Houston Center
Sun 12:35:36 PM 29.6269 -95.1292 52° Northeast 234 269 4,100 148 Climbing Houston Center
Sun 12:36:43 PM 29.6644 -95.0594 58° Northeast 220 253 4,100 -49 Level Houston Center
Sun 12:37:39 PM 29.7078 -95.0517 North 171 197 4,000 -651 Descending Houston Center
Sun 12:38:52 PM 29.7361 -95.1083 300° West 163 188 2,700 -985 Descending Houston Center
Sun 12:39:53 PM 29.7364 -95.1567 270° West 140 161 1,800 -718 Descending Houston Center
Sun 12:40:49 PM 29.7189 -95.1925 241° Southwest 141 162 1,300 -359 Descending Houston Center
Sun 12:41:50 PM 29.6944 -95.2242 228° Southwest 139 160 1,100 -422 Descending Houston Center
Sun 12:42:57 PM 29.6639 -95.2567 223° Southwest 128 147 400 -627 Descending Houston Center

Login

Don't have an account? Register now (free) for customized features, flight alerts, and more!